sensor_id;sensor_type;location;lat;lon;timestamp;P1;durP1;ratioP1;P2;durP2;ratioP2
5833;SDS011;2943;48.012;10.968;2024-03-17T00:01:12;8.33;;;6.67;;
5833;SDS011;2943;48.012;10.968;2024-03-17T00:03:39;7.10;;;6.00;;
5833;SDS011;2943;48.012;10.968;2024-03-17T00:06:08;7.17;;;6.03;;
5833;SDS011;2943;48.012;10.968;2024-03-17T00:08:34;9.50;;;7.00;;
5833;SDS011;2943;48.012;10.968;2024-03-17T00:11:01;7.37;;;6.40;;
5833;SDS011;2943;48.012;10.968;2024-03-17T00:13:27;7.40;;;6.67;;
5833;SDS011;2943;48.012;10.968;2024-03-17T00:15:58;8.40;;;6.20;;
5833;SDS011;2943;48.012;10.968;2024-03-17T00:18:23;8.23;;;6.30;;
5833;SDS011;2943;48.012;10.968;2024-03-17T00:20:52;7.07;;;6.37;;
5833;SDS011;2943;48.012;10.968;2024-03-17T00:23:21;8.37;;;6.50;;
5833;SDS011;2943;48.012;10.968;2024-03-17T00:25:49;11.80;;;6.87;;
5833;SDS011;2943;48.012;10.968;2024-03-17T00:28:16;7.93;;;7.13;;
5833;SDS011;2943;48.012;10.968;2024-03-17T00:30:45;10.17;;;7.17;;
5833;SDS011;2943;48.012;10.968;2024-03-17T00:33:11;8.43;;;7.37;;
5833;SDS011;2943;48.012;10.968;2024-03-17T00:35:39;8.03;;;6.73;;
5833;SDS011;2943;48.012;10.968;2024-03-17T00:38:05;7.03;;;6.33;;
5833;SDS011;2943;48.012;10.968;2024-03-17T00:40:36;7.30;;;6.07;;
5833;SDS011;2943;48.012;10.968;2024-03-17T00:43:03;7.33;;;6.53;;
5833;SDS011;2943;48.012;10.968;2024-03-17T00:45:30;8.93;;;7.40;;
5833;SDS011;2943;48.012;10.968;2024-03-17T00:47:59;8.40;;;6.90;;
5833;SDS011;2943;48.012;10.968;2024-03-17T00:50:26;7.40;;;6.70;;
5833;SDS011;2943;48.012;10.968;2024-03-17T00:52:52;9.40;;;7.67;;
5833;SDS011;2943;48.012;10.968;2024-03-17T00:55:19;7.70;;;6.90;;
5833;SDS011;2943;48.012;10.968;2024-03-17T00:57:46;7.60;;;6.70;;
5833;SDS011;2943;48.012;10.968;2024-03-17T01:00:13;9.13;;;7.50;;
5833;SDS011;2943;48.012;10.968;2024-03-17T01:02:41;7.63;;;6.83;;
5833;SDS011;2943;48.012;10.968;2024-03-17T01:05:11;7.30;;;6.57;;
5833;SDS011;2943;48.012;10.968;2024-03-17T01:07:38;7.80;;;7.00;;
5833;SDS011;2943;48.012;10.968;2024-03-17T01:10:06;8.40;;;7.33;;
5833;SDS011;2943;48.012;10.968;2024-03-17T01:12:33;9.73;;;7.33;;
5833;SDS011;2943;48.012;10.968;2024-03-17T01:15:05;9.23;;;7.53;;
5833;SDS011;2943;48.012;10.968;2024-03-17T01:17:37;9.97;;;7.97;;
5833;SDS011;2943;48.012;10.968;2024-03-17T01:20:07;7.90;;;7.10;;
5833;SDS011;2943;48.012;10.968;2024-03-17T01:22:33;9.17;;;6.90;;
5833;SDS011;2943;48.012;10.968;2024-03-17T01:25:00;11.07;;;7.37;;
5833;SDS011;2943;48.012;10.968;2024-03-17T01:27:26;8.20;;;6.70;;
5833;SDS011;2943;48.012;10.968;2024-03-17T01:29:53;7.70;;;6.90;;
5833;SDS011;2943;48.012;10.968;2024-03-17T01:32:20;10.60;;;7.53;;
5833;SDS011;2943;48.012;10.968;2024-03-17T01:34:47;7.70;;;6.90;;
5833;SDS011;2943;48.012;10.968;2024-03-17T01:37:13;10.10;;;7.37;;
5833;SDS011;2943;48.012;10.968;2024-03-17T01:39:40;7.63;;;6.83;;
5833;SDS011;2943;48.012;10.968;2024-03-17T01:42:06;8.33;;;6.73;;
5833;SDS011;2943;48.012;10.968;2024-03-17T01:44:33;9.33;;;5.93;;
5833;SDS011;2943;48.012;10.968;2024-03-17T01:47:01;9.43;;;7.40;;
5833;SDS011;2943;48.012;10.968;2024-03-17T01:49:29;9.47;;;7.73;;
5833;SDS011;2943;48.012;10.968;2024-03-17T01:51:56;7.77;;;6.97;;
5833;SDS011;2943;48.012;10.968;2024-03-17T01:54:23;9.20;;;6.70;;
5833;SDS011;2943;48.012;10.968;2024-03-17T01:56:49;7.70;;;6.70;;
5833;SDS011;2943;48.012;10.968;2024-03-17T01:59:18;10.23;;;8.27;;
5833;SDS011;2943;48.012;10.968;2024-03-17T02:01:44;11.37;;;8.70;;
5833;SDS011;2943;48.012;10.968;2024-03-17T02:04:11;9.53;;;7.93;;
5833;SDS011;2943;48.012;10.968;2024-03-17T02:06:38;9.33;;;7.90;;
5833;SDS011;2943;48.012;10.968;2024-03-17T02:09:07;9.27;;;8.17;;
5833;SDS011;2943;48.012;10.968;2024-03-17T02:11:37;9.53;;;7.70;;
5833;SDS011;2943;48.012;10.968;2024-03-17T02:14:04;8.63;;;7.73;;
5833;SDS011;2943;48.012;10.968;2024-03-17T02:16:32;8.77;;;7.13;;
5833;SDS011;2943;48.012;10.968;2024-03-17T02:18:59;9.40;;;7.03;;
5833;SDS011;2943;48.012;10.968;2024-03-17T02:21:25;10.30;;;8.50;;
5833;SDS011;2943;48.012;10.968;2024-03-17T02:23:54;9.63;;;7.77;;
5833;SDS011;2943;48.012;10.968;2024-03-17T02:26:21;8.40;;;7.23;;
5833;SDS011;2943;48.012;10.968;2024-03-17T02:28:50;8.40;;;7.13;;
5833;SDS011;2943;48.012;10.968;2024-03-17T02:31:17;7.30;;;5.97;;
5833;SDS011;2943;48.012;10.968;2024-03-17T02:33:45;7.80;;;6.33;;
5833;SDS011;2943;48.012;10.968;2024-03-17T02:36:11;10.00;;;6.80;;
5833;SDS011;2943;48.012;10.968;2024-03-17T02:38:39;9.00;;;6.80;;
5833;SDS011;2943;48.012;10.968;2024-03-17T02:41:25;8.43;;;6.53;;
5833;SDS011;2943;48.012;10.968;2024-03-17T02:43:53;11.23;;;8.30;;
5833;SDS011;2943;48.012;10.968;2024-03-17T02:46:22;20.13;;;9.30;;
5833;SDS011;2943;48.012;10.968;2024-03-17T02:48:50;11.17;;;8.60;;
5833;SDS011;2943;48.012;10.968;2024-03-17T02:51:18;9.93;;;7.80;;
5833;SDS011;2943;48.012;10.968;2024-03-17T02:53:47;12.43;;;7.00;;
5833;SDS011;2943;48.012;10.968;2024-03-17T02:56:15;8.90;;;7.20;;
5833;SDS011;2943;48.012;10.968;2024-03-17T02:58:44;9.03;;;7.37;;
5833;SDS011;2943;48.012;10.968;2024-03-17T03:01:12;11.27;;;8.40;;
5833;SDS011;2943;48.012;10.968;2024-03-17T03:03:40;15.00;;;9.20;;
5833;SDS011;2943;48.012;10.968;2024-03-17T03:06:07;8.27;;;6.47;;
5833;SDS011;2943;48.012;10.968;2024-03-17T03:08:39;6.93;;;6.20;;
5833;SDS011;2943;48.012;10.968;2024-03-17T03:11:09;7.10;;;5.83;;
5833;SDS011;2943;48.012;10.968;2024-03-17T03:13:38;6.70;;;5.97;;
5833;SDS011;2943;48.012;10.968;2024-03-17T03:16:07;7.10;;;6.20;;
5833;SDS011;2943;48.012;10.968;2024-03-17T03:18:35;7.20;;;5.93;;
5833;SDS011;2943;48.012;10.968;2024-03-17T03:21:08;6.37;;;5.73;;
5833;SDS011;2943;48.012;10.968;2024-03-17T03:23:34;6.27;;;5.63;;
5833;SDS011;2943;48.012;10.968;2024-03-17T03:26:02;6.07;;;5.47;;
5833;SDS011;2943;48.012;10.968;2024-03-17T03:28:31;5.90;;;5.03;;
5833;SDS011;2943;48.012;10.968;2024-03-17T03:30:58;7.53;;;5.40;;
5833;SDS011;2943;48.012;10.968;2024-03-17T03:33:27;6.53;;;5.60;;
5833;SDS011;2943;48.012;10.968;2024-03-17T03:35:54;5.40;;;4.90;;
5833;SDS011;2943;48.012;10.968;2024-03-17T03:38:22;7.27;;;6.50;;
5833;SDS011;2943;48.012;10.968;2024-03-17T03:40:50;8.27;;;6.00;;
5833;SDS011;2943;48.012;10.968;2024-03-17T03:43:19;6.10;;;5.27;;
5833;SDS011;2943;48.012;10.968;2024-03-17T03:45:46;7.33;;;5.73;;
5833;SDS011;2943;48.012;10.968;2024-03-17T03:48:16;8.80;;;6.27;;
5833;SDS011;2943;48.012;10.968;2024-03-17T03:50:45;6.53;;;5.70;;
5833;SDS011;2943;48.012;10.968;2024-03-17T03:53:12;7.50;;;5.63;;
5833;SDS011;2943;48.012;10.968;2024-03-17T03:55:39;5.97;;;5.37;;
5833;SDS011;2943;48.012;10.968;2024-03-17T03:58:07;7.30;;;6.13;;
5833;SDS011;2943;48.012;10.968;2024-03-17T04:00:34;8.23;;;5.80;;
5833;SDS011;2943;48.012;10.968;2024-03-17T04:03:04;6.13;;;5.53;;
5833;SDS011;2943;48.012;10.968;2024-03-17T04:05:31;7.00;;;5.90;;
5833;SDS011;2943;48.012;10.968;2024-03-17T04:08:01;6.47;;;5.87;;
5833;SDS011;2943;48.012;10.968;2024-03-17T04:10:28;5.90;;;5.30;;
5833;SDS011;2943;48.012;10.968;2024-03-17T04:12:55;7.03;;;6.30;;
5833;SDS011;2943;48.012;10.968;2024-03-17T04:15:22;30.13;;;6.90;;
5833;SDS011;2943;48.012;10.968;2024-03-17T04:17:49;5.83;;;5.23;;
5833;SDS011;2943;48.012;10.968;2024-03-17T04:20:17;7.50;;;5.63;;
5833;SDS011;2943;48.012;10.968;2024-03-17T04:22:46;7.10;;;6.17;;
5833;SDS011;2943;48.012;10.968;2024-03-17T04:25:15;5.50;;;5.00;;
5833;SDS011;2943;48.012;10.968;2024-03-17T04:27:42;6.20;;;5.60;;
5833;SDS011;2943;48.012;10.968;2024-03-17T04:30:09;6.93;;;6.23;;
5833;SDS011;2943;48.012;10.968;2024-03-17T04:32:37;5.47;;;4.90;;
5833;SDS011;2943;48.012;10.968;2024-03-17T04:35:04;4.80;;;4.30;;
5833;SDS011;2943;48.012;10.968;2024-03-17T04:37:33;5.40;;;4.90;;
5833;SDS011;2943;48.012;10.968;2024-03-17T04:40:04;5.23;;;4.73;;
5833;SDS011;2943;48.012;10.968;2024-03-17T04:42:35;5.23;;;4.73;;
5833;SDS011;2943;48.012;10.968;2024-03-17T04:45:04;4.63;;;4.23;;
5833;SDS011;2943;48.012;10.968;2024-03-17T04:47:34;4.87;;;3.70;;
5833;SDS011;2943;48.012;10.968;2024-03-17T04:50:01;4.80;;;4.30;;
5833;SDS011;2943;48.012;10.968;2024-03-17T04:52:29;4.50;;;4.10;;
5833;SDS011;2943;48.012;10.968;2024-03-17T04:54:56;5.13;;;4.33;;
5833;SDS011;2943;48.012;10.968;2024-03-17T04:57:23;6.40;;;5.33;;
5833;SDS011;2943;48.012;10.968;2024-03-17T04:59:51;5.73;;;4.97;;
5833;SDS011;2943;48.012;10.968;2024-03-17T05:02:18;5.27;;;4.77;;
5833;SDS011;2943;48.012;10.968;2024-03-17T05:04:45;5.00;;;4.50;;
5833;SDS011;2943;48.012;10.968;2024-03-17T05:07:15;5.83;;;5.23;;
5833;SDS011;2943;48.012;10.968;2024-03-17T05:09:42;6.23;;;5.60;;
5833;SDS011;2943;48.012;10.968;2024-03-17T05:12:12;6.20;;;5.60;;
5833;SDS011;2943;48.012;10.968;2024-03-17T05:14:39;5.73;;;5.13;;
5833;SDS011;2943;48.012;10.968;2024-03-17T05:17:07;6.37;;;5.67;;
5833;SDS011;2943;48.012;10.968;2024-03-17T05:19:34;5.43;;;4.93;;
5833;SDS011;2943;48.012;10.968;2024-03-17T05:22:03;5.33;;;4.73;;
5833;SDS011;2943;48.012;10.968;2024-03-17T05:24:30;5.50;;;4.97;;
5833;SDS011;2943;48.012;10.968;2024-03-17T05:26:58;5.40;;;4.90;;
5833;SDS011;2943;48.012;10.968;2024-03-17T05:29:27;5.30;;;4.80;;
5833;SDS011;2943;48.012;10.968;2024-03-17T05:31:55;6.77;;;4.60;;
5833;SDS011;2943;48.012;10.968;2024-03-17T05:34:24;5.20;;;4.70;;
5833;SDS011;2943;48.012;10.968;2024-03-17T05:36:57;5.87;;;5.37;;
5833;SDS011;2943;48.012;10.968;2024-03-17T05:39:28;4.63;;;4.23;;
5833;SDS011;2943;48.012;10.968;2024-03-17T05:41:55;5.03;;;4.53;;
5833;SDS011;2943;48.012;10.968;2024-03-17T05:44:21;4.43;;;4.03;;
5833;SDS011;2943;48.012;10.968;2024-03-17T05:46:48;10.13;;;4.07;;
5833;SDS011;2943;48.012;10.968;2024-03-17T05:49:24;4.53;;;4.13;;
5833;SDS011;2943;48.012;10.968;2024-03-17T05:51:51;4.17;;;3.77;;
5833;SDS011;2943;48.012;10.968;2024-03-17T05:54:18;5.23;;;4.00;;
5833;SDS011;2943;48.012;10.968;2024-03-17T05:56:46;5.73;;;4.70;;
5833;SDS011;2943;48.012;10.968;2024-03-17T05:59:13;5.13;;;4.63;;
5833;SDS011;2943;48.012;10.968;2024-03-17T06:01:41;5.87;;;5.10;;
5833;SDS011;2943;48.012;10.968;2024-03-17T06:04:08;6.33;;;5.30;;
5833;SDS011;2943;48.012;10.968;2024-03-17T06:06:36;5.43;;;4.93;;
5833;SDS011;2943;48.012;10.968;2024-03-17T06:09:04;6.10;;;5.50;;
5833;SDS011;2943;48.012;10.968;2024-03-17T06:11:34;4.73;;;4.33;;
5833;SDS011;2943;48.012;10.968;2024-03-17T06:14:09;5.13;;;4.63;;
5833;SDS011;2943;48.012;10.968;2024-03-17T06:16:37;6.53;;;4.80;;
5833;SDS011;2943;48.012;10.968;2024-03-17T06:19:07;14.13;;;7.57;;
5833;SDS011;2943;48.012;10.968;2024-03-17T06:21:34;30.73;;;15.10;;
5833;SDS011;2943;48.012;10.968;2024-03-17T06:24:04;24.53;;;13.80;;
5833;SDS011;2943;48.012;10.968;2024-03-17T06:26:32;13.10;;;8.70;;
5833;SDS011;2943;48.012;10.968;2024-03-17T06:28:59;11.00;;;7.40;;
5833;SDS011;2943;48.012;10.968;2024-03-17T06:31:26;7.93;;;7.13;;
5833;SDS011;2943;48.012;10.968;2024-03-17T06:33:54;5.50;;;5.00;;
5833;SDS011;2943;48.012;10.968;2024-03-17T06:36:21;5.20;;;4.53;;
5833;SDS011;2943;48.012;10.968;2024-03-17T06:38:48;4.80;;;4.40;;
5833;SDS011;2943;48.012;10.968;2024-03-17T06:41:17;6.40;;;5.67;;
5833;SDS011;2943;48.012;10.968;2024-03-17T06:43:44;5.73;;;5.23;;
5833;SDS011;2943;48.012;10.968;2024-03-17T06:46:12;5.27;;;4.77;;
5833;SDS011;2943;48.012;10.968;2024-03-17T06:48:39;5.03;;;4.50;;
5833;SDS011;2943;48.012;10.968;2024-03-17T06:51:07;4.93;;;4.43;;
5833;SDS011;2943;48.012;10.968;2024-03-17T06:53:36;4.37;;;3.97;;
5833;SDS011;2943;48.012;10.968;2024-03-17T06:56:03;9.43;;;5.80;;
5833;SDS011;2943;48.012;10.968;2024-03-17T06:58:36;8.50;;;5.70;;
5833;SDS011;2943;48.012;10.968;2024-03-17T07:01:03;9.83;;;5.70;;
5833;SDS011;2943;48.012;10.968;2024-03-17T07:03:30;5.60;;;5.10;;
5833;SDS011;2943;48.012;10.968;2024-03-17T07:05:58;6.43;;;5.37;;
5833;SDS011;2943;48.012;10.968;2024-03-17T07:08:28;6.90;;;5.87;;
5833;SDS011;2943;48.012;10.968;2024-03-17T07:10:58;7.13;;;5.73;;
5833;SDS011;2943;48.012;10.968;2024-03-17T07:13:30;7.70;;;6.20;;
5833;SDS011;2943;48.012;10.968;2024-03-17T07:15:59;10.00;;;5.80;;
5833;SDS011;2943;48.012;10.968;2024-03-17T07:18:27;8.53;;;6.30;;
5833;SDS011;2943;48.012;10.968;2024-03-17T07:20:56;7.40;;;6.70;;
5833;SDS011;2943;48.012;10.968;2024-03-17T07:23:23;8.73;;;6.77;;
5833;SDS011;2943;48.012;10.968;2024-03-17T07:25:54;10.10;;;7.00;;
5833;SDS011;2943;48.012;10.968;2024-03-17T07:28:23;6.77;;;5.67;;
5833;SDS011;2943;48.012;10.968;2024-03-17T07:30:52;6.70;;;6.07;;
5833;SDS011;2943;48.012;10.968;2024-03-17T07:33:22;6.00;;;5.37;;
5833;SDS011;2943;48.012;10.968;2024-03-17T07:35:50;5.80;;;5.20;;
5833;SDS011;2943;48.012;10.968;2024-03-17T07:38:18;6.30;;;5.70;;
5833;SDS011;2943;48.012;10.968;2024-03-17T07:40:45;7.80;;;6.20;;
5833;SDS011;2943;48.012;10.968;2024-03-17T07:43:23;9.13;;;6.47;;
5833;SDS011;2943;48.012;10.968;2024-03-17T07:45:58;7.10;;;6.40;;
5833;SDS011;2943;48.012;10.968;2024-03-17T07:48:27;5.83;;;5.23;;
5833;SDS011;2943;48.012;10.968;2024-03-17T07:50:56;7.50;;;5.07;;
5833;SDS011;2943;48.012;10.968;2024-03-17T07:53:27;5.67;;;5.03;;
5833;SDS011;2943;48.012;10.968;2024-03-17T07:55:57;5.67;;;5.17;;
5833;SDS011;2943;48.012;10.968;2024-03-17T07:58:25;6.50;;;5.37;;
5833;SDS011;2943;48.012;10.968;2024-03-17T08:00:56;7.20;;;5.30;;
5833;SDS011;2943;48.012;10.968;2024-03-17T08:03:27;6.40;;;5.60;;
5833;SDS011;2943;48.012;10.968;2024-03-17T08:05:56;8.23;;;5.47;;
5833;SDS011;2943;48.012;10.968;2024-03-17T08:08:25;5.10;;;4.70;;
5833;SDS011;2943;48.012;10.968;2024-03-17T08:10:52;7.30;;;5.53;;
5833;SDS011;2943;48.012;10.968;2024-03-17T08:13:21;5.50;;;5.00;;
5833;SDS011;2943;48.012;10.968;2024-03-17T08:15:54;7.10;;;4.57;;
5833;SDS011;2943;48.012;10.968;2024-03-17T08:18:25;6.20;;;5.27;;
5833;SDS011;2943;48.012;10.968;2024-03-17T08:20:55;5.20;;;4.70;;
5833;SDS011;2943;48.012;10.968;2024-03-17T08:23:23;6.20;;;4.97;;
5833;SDS011;2943;48.012;10.968;2024-03-17T08:25:53;5.57;;;4.60;;
5833;SDS011;2943;48.012;10.968;2024-03-17T08:28:20;6.60;;;5.87;;
5833;SDS011;2943;48.012;10.968;2024-03-17T08:30:51;7.33;;;4.67;;
5833;SDS011;2943;48.012;10.968;2024-03-17T08:33:19;9.10;;;4.90;;
5833;SDS011;2943;48.012;10.968;2024-03-17T08:35:57;9.23;;;5.07;;
5833;SDS011;2943;48.012;10.968;2024-03-17T08:38:25;6.50;;;4.33;;
5833;SDS011;2943;48.012;10.968;2024-03-17T08:40:55;7.83;;;3.73;;
5833;SDS011;2943;48.012;10.968;2024-03-17T08:43:26;4.93;;;3.90;;
5833;SDS011;2943;48.012;10.968;2024-03-17T08:45:55;5.20;;;4.70;;
5833;SDS011;2943;48.012;10.968;2024-03-17T08:48:23;5.93;;;4.00;;
5833;SDS011;2943;48.012;10.968;2024-03-17T08:50:51;6.37;;;3.90;;
5833;SDS011;2943;48.012;10.968;2024-03-17T08:53:20;5.80;;;3.90;;
5833;SDS011;2943;48.012;10.968;2024-03-17T08:55:53;4.27;;;3.47;;
5833;SDS011;2943;48.012;10.968;2024-03-17T08:58:23;4.17;;;3.20;;
5833;SDS011;2943;48.012;10.968;2024-03-17T09:00:50;4.00;;;2.80;;
5833;SDS011;2943;48.012;10.968;2024-03-17T09:03:21;5.80;;;3.13;;
5833;SDS011;2943;48.012;10.968;2024-03-17T09:05:49;5.43;;;2.80;;
5833;SDS011;2943;48.012;10.968;2024-03-17T09:08:21;5.80;;;2.90;;
5833;SDS011;2943;48.012;10.968;2024-03-17T09:10:50;6.70;;;3.40;;
5833;SDS011;2943;48.012;10.968;2024-03-17T09:13:18;4.03;;;2.60;;
5833;SDS011;2943;48.012;10.968;2024-03-17T09:15:52;4.73;;;2.83;;
5833;SDS011;2943;48.012;10.968;2024-03-17T09:18:22;4.03;;;2.30;;
5833;SDS011;2943;48.012;10.968;2024-03-17T09:20:56;4.80;;;2.97;;
5833;SDS011;2943;48.012;10.968;2024-03-17T09:23:25;5.37;;;2.47;;
5833;SDS011;2943;48.012;10.968;2024-03-17T09:25:56;4.70;;;2.47;;
5833;SDS011;2943;48.012;10.968;2024-03-17T09:28:24;5.27;;;2.57;;
5833;SDS011;2943;48.012;10.968;2024-03-17T09:30:51;3.67;;;2.40;;
5833;SDS011;2943;48.012;10.968;2024-03-17T09:33:18;4.50;;;3.00;;
5833;SDS011;2943;48.012;10.968;2024-03-17T09:35:52;9.10;;;2.83;;
5833;SDS011;2943;48.012;10.968;2024-03-17T09:38:19;8.53;;;2.60;;
5833;SDS011;2943;48.012;10.968;2024-03-17T09:40:47;2.87;;;2.50;;
5833;SDS011;2943;48.012;10.968;2024-03-17T09:43:17;7.40;;;2.40;;
5833;SDS011;2943;48.012;10.968;2024-03-17T09:45:45;13.70;;;3.63;;
5833;SDS011;2943;48.012;10.968;2024-03-17T09:48:13;2.83;;;2.10;;
5833;SDS011;2943;48.012;10.968;2024-03-17T09:50:43;8.43;;;2.53;;
5833;SDS011;2943;48.012;10.968;2024-03-17T09:53:16;4.23;;;2.33;;
5833;SDS011;2943;48.012;10.968;2024-03-17T09:55:52;3.90;;;2.37;;
5833;SDS011;2943;48.012;10.968;2024-03-17T09:58:23;4.73;;;2.20;;
5833;SDS011;2943;48.012;10.968;2024-03-17T10:00:51;3.33;;;2.17;;
5833;SDS011;2943;48.012;10.968;2024-03-17T10:06:08;3.90;;;2.20;;
5833;SDS011;2943;48.012;10.968;2024-03-17T10:08:40;2.60;;;2.10;;
5833;SDS011;2943;48.012;10.968;2024-03-17T10:11:10;5.10;;;2.60;;
5833;SDS011;2943;48.012;10.968;2024-03-17T10:13:37;2.37;;;2.17;;
5833;SDS011;2943;48.012;10.968;2024-03-17T10:16:04;6.97;;;3.40;;
5833;SDS011;2943;48.012;10.968;2024-03-17T10:18:31;5.10;;;3.10;;
5833;SDS011;2943;48.012;10.968;2024-03-17T10:20:58;5.60;;;2.03;;
5833;SDS011;2943;48.012;10.968;2024-03-17T10:23:26;3.20;;;1.80;;
5833;SDS011;2943;48.012;10.968;2024-03-17T10:25:54;4.30;;;2.17;;
5833;SDS011;2943;48.012;10.968;2024-03-17T10:28:22;4.07;;;2.17;;
5833;SDS011;2943;48.012;10.968;2024-03-17T10:31:01;9.00;;;2.63;;
5833;SDS011;2943;48.012;10.968;2024-03-17T10:33:28;3.77;;;2.57;;
5833;SDS011;2943;48.012;10.968;2024-03-17T10:35:58;3.17;;;2.43;;
5833;SDS011;2943;48.012;10.968;2024-03-17T10:38:26;9.07;;;2.40;;
5833;SDS011;2943;48.012;10.968;2024-03-17T10:40:53;3.43;;;1.97;;
5833;SDS011;2943;48.012;10.968;2024-03-17T10:43:22;8.53;;;2.03;;
5833;SDS011;2943;48.012;10.968;2024-03-17T10:45:53;2.43;;;1.60;;
5833;SDS011;2943;48.012;10.968;2024-03-17T10:48:23;4.33;;;2.20;;
5833;SDS011;2943;48.012;10.968;2024-03-17T10:51:01;6.13;;;2.20;;
5833;SDS011;2943;48.012;10.968;2024-03-17T10:53:28;2.90;;;1.90;;
5833;SDS011;2943;48.012;10.968;2024-03-17T10:56:03;8.43;;;2.10;;
5833;SDS011;2943;48.012;10.968;2024-03-17T10:58:36;2.30;;;1.90;;
5833;SDS011;2943;48.012;10.968;2024-03-17T11:01:06;4.10;;;2.43;;
5833;SDS011;2943;48.012;10.968;2024-03-17T11:03:39;3.77;;;1.77;;
5833;SDS011;2943;48.012;10.968;2024-03-17T11:06:08;3.10;;;2.20;;
5833;SDS011;2943;48.012;10.968;2024-03-17T11:08:36;4.33;;;1.90;;
5833;SDS011;2943;48.012;10.968;2024-03-17T11:11:07;6.73;;;1.60;;
5833;SDS011;2943;48.012;10.968;2024-03-17T11:13:35;3.40;;;1.90;;
5833;SDS011;2943;48.012;10.968;2024-03-17T11:16:04;4.50;;;2.43;;
5833;SDS011;2943;48.012;10.968;2024-03-17T11:18:50;3.70;;;1.93;;
5833;SDS011;2943;48.012;10.968;2024-03-17T11:21:20;4.40;;;1.83;;
5833;SDS011;2943;48.012;10.968;2024-03-17T11:24:00;11.30;;;2.10;;
5833;SDS011;2943;48.012;10.968;2024-03-17T11:26:48;5.13;;;1.97;;
5833;SDS011;2943;48.012;10.968;2024-03-17T11:29:28;4.13;;;2.17;;
5833;SDS011;2943;48.012;10.968;2024-03-17T11:31:57;3.20;;;1.90;;
5833;SDS011;2943;48.012;10.968;2024-03-17T11:34:26;6.73;;;1.70;;
5833;SDS011;2943;48.012;10.968;2024-03-17T11:36:57;4.60;;;2.10;;
5833;SDS011;2943;48.012;10.968;2024-03-17T11:42:23;4.07;;;1.90;;
5833;SDS011;2943;48.012;10.968;2024-03-17T11:44:57;9.10;;;2.47;;
5833;SDS011;2943;48.012;10.968;2024-03-17T11:47:33;2.37;;;1.70;;
5833;SDS011;2943;48.012;10.968;2024-03-17T11:50:04;3.23;;;1.60;;
5833;SDS011;2943;48.012;10.968;2024-03-17T11:52:46;6.00;;;2.07;;
5833;SDS011;2943;48.012;10.968;2024-03-17T11:55:25;4.60;;;1.93;;
5833;SDS011;2943;48.012;10.968;2024-03-17T11:57:55;3.40;;;1.67;;
5833;SDS011;2943;48.012;10.968;2024-03-17T12:00:24;5.80;;;2.20;;
5833;SDS011;2943;48.012;10.968;2024-03-17T12:02:52;3.17;;;1.90;;
5833;SDS011;2943;48.012;10.968;2024-03-17T12:05:19;2.30;;;1.70;;
5833;SDS011;2943;48.012;10.968;2024-03-17T12:07:46;5.60;;;1.93;;
5833;SDS011;2943;48.012;10.968;2024-03-17T12:10:15;4.50;;;2.40;;
5833;SDS011;2943;48.012;10.968;2024-03-17T12:12:46;3.93;;;1.57;;
5833;SDS011;2943;48.012;10.968;2024-03-17T12:15:25;2.27;;;1.93;;
5833;SDS011;2943;48.012;10.968;2024-03-17T12:17:54;3.27;;;1.90;;
5833;SDS011;2943;48.012;10.968;2024-03-17T12:20:47;8.37;;;2.40;;
5833;SDS011;2943;48.012;10.968;2024-03-17T12:23:15;3.40;;;1.80;;
5833;SDS011;2943;48.012;10.968;2024-03-17T12:25:46;3.43;;;1.73;;
5833;SDS011;2943;48.012;10.968;2024-03-17T12:28:14;3.20;;;1.90;;
5833;SDS011;2943;48.012;10.968;2024-03-17T12:30:44;2.40;;;2.20;;
5833;SDS011;2943;48.012;10.968;2024-03-17T12:33:12;5.37;;;2.80;;
5833;SDS011;2943;48.012;10.968;2024-03-17T12:35:39;21.90;;;10.73;;
5833;SDS011;2943;48.012;10.968;2024-03-17T12:38:18;9.30;;;3.63;;
5833;SDS011;2943;48.012;10.968;2024-03-17T12:40:48;2.30;;;1.83;;
5833;SDS011;2943;48.012;10.968;2024-03-17T12:43:17;5.00;;;2.10;;
5833;SDS011;2943;48.012;10.968;2024-03-17T12:45:49;7.40;;;2.10;;
5833;SDS011;2943;48.012;10.968;2024-03-17T12:48:20;1.90;;;1.63;;
5833;SDS011;2943;48.012;10.968;2024-03-17T12:50:50;4.60;;;2.17;;
5833;SDS011;2943;48.012;10.968;2024-03-17T12:53:17;6.13;;;2.20;;
5833;SDS011;2943;48.012;10.968;2024-03-17T12:55:52;8.73;;;1.90;;
5833;SDS011;2943;48.012;10.968;2024-03-17T14:46:04;5.43;;;1.97;;
5833;SDS011;2943;48.012;10.968;2024-03-17T14:48:33;9.13;;;2.53;;
5833;SDS011;2943;48.012;10.968;2024-03-17T14:51:00;2.80;;;1.60;;
5833;SDS011;2943;48.012;10.968;2024-03-17T14:53:27;3.23;;;1.70;;
5833;SDS011;2943;48.012;10.968;2024-03-17T14:55:54;2.80;;;2.00;;
5833;SDS011;2943;48.012;10.968;2024-03-17T14:58:21;5.20;;;2.00;;
5833;SDS011;2943;48.012;10.968;2024-03-17T15:00:48;3.67;;;1.93;;
5833;SDS011;2943;48.012;10.968;2024-03-17T15:03:16;2.80;;;1.80;;
5833;SDS011;2943;48.012;10.968;2024-03-17T15:05:43;4.70;;;1.53;;
5833;SDS011;2943;48.012;10.968;2024-03-17T15:08:10;4.40;;;1.87;;
5833;SDS011;2943;48.012;10.968;2024-03-17T15:10:37;4.80;;;1.70;;
5833;SDS011;2943;48.012;10.968;2024-03-17T15:13:04;4.72;;;1.60;;
5833;SDS011;2943;48.012;10.968;2024-03-17T15:15:31;2.43;;;1.80;;
5833;SDS011;2943;48.012;10.968;2024-03-17T15:17:58;3.80;;;1.70;;
5833;SDS011;2943;48.012;10.968;2024-03-17T15:20:26;3.57;;;1.90;;
5833;SDS011;2943;48.012;10.968;2024-03-17T15:22:54;5.47;;;1.80;;
5833;SDS011;2943;48.012;10.968;2024-03-17T15:25:22;7.47;;;2.23;;
5833;SDS011;2943;48.012;10.968;2024-03-17T15:27:50;1.90;;;1.70;;
5833;SDS011;2943;48.012;10.968;2024-03-17T15:30:17;5.53;;;2.27;;
5833;SDS011;2943;48.012;10.968;2024-03-17T15:32:45;4.93;;;1.97;;
5833;SDS011;2943;48.012;10.968;2024-03-17T15:35:12;3.60;;;1.90;;
5833;SDS011;2943;48.012;10.968;2024-03-17T15:37:40;3.93;;;2.33;;
5833;SDS011;2943;48.012;10.968;2024-03-17T15:40:08;4.80;;;2.10;;
5833;SDS011;2943;48.012;10.968;2024-03-17T15:42:41;4.27;;;2.20;;
5833;SDS011;2943;48.012;10.968;2024-03-17T15:45:10;3.43;;;1.73;;
5833;SDS011;2943;48.012;10.968;2024-03-17T15:47:37;3.73;;;2.07;;
5833;SDS011;2943;48.012;10.968;2024-03-17T15:50:04;4.57;;;2.03;;
5833;SDS011;2943;48.012;10.968;2024-03-17T15:52:31;4.73;;;1.90;;
5833;SDS011;2943;48.012;10.968;2024-03-17T15:55:01;7.37;;;1.77;;
5833;SDS011;2943;48.012;10.968;2024-03-17T15:57:29;3.80;;;1.70;;
5833;SDS011;2943;48.012;10.968;2024-03-17T15:59:56;3.90;;;2.13;;
5833;SDS011;2943;48.012;10.968;2024-03-17T16:02:23;3.53;;;2.27;;
5833;SDS011;2943;48.012;10.968;2024-03-17T16:04:52;5.10;;;1.73;;
5833;SDS011;2943;48.012;10.968;2024-03-17T16:07:20;3.73;;;1.77;;
5833;SDS011;2943;48.012;10.968;2024-03-17T16:09:49;6.67;;;2.13;;
5833;SDS011;2943;48.012;10.968;2024-03-17T16:12:18;2.77;;;1.90;;
5833;SDS011;2943;48.012;10.968;2024-03-17T16:14:46;6.60;;;1.97;;
5833;SDS011;2943;48.012;10.968;2024-03-17T16:17:15;4.27;;;2.03;;
5833;SDS011;2943;48.012;10.968;2024-03-17T16:19:42;5.33;;;2.10;;
5833;SDS011;2943;48.012;10.968;2024-03-17T16:22:11;2.17;;;1.90;;
5833;SDS011;2943;48.012;10.968;2024-03-17T16:24:40;3.80;;;1.63;;
5833;SDS011;2943;48.012;10.968;2024-03-17T16:27:09;2.00;;;1.60;;
5833;SDS011;2943;48.012;10.968;2024-03-17T16:29:40;6.20;;;2.17;;
5833;SDS011;2943;48.012;10.968;2024-03-17T16:32:09;4.17;;;1.80;;
5833;SDS011;2943;48.012;10.968;2024-03-17T16:34:36;2.73;;;1.87;;
5833;SDS011;2943;48.012;10.968;2024-03-17T16:37:03;5.43;;;1.90;;
5833;SDS011;2943;48.012;10.968;2024-03-17T16:39:31;3.07;;;1.80;;
5833;SDS011;2943;48.012;10.968;2024-03-17T16:41:58;7.87;;;2.47;;
5833;SDS011;2943;48.012;10.968;2024-03-17T16:44:26;4.87;;;1.80;;
5833;SDS011;2943;48.012;10.968;2024-03-17T16:47:12;3.93;;;1.93;;
5833;SDS011;2943;48.012;10.968;2024-03-17T16:49:54;3.63;;;1.77;;
5833;SDS011;2943;48.012;10.968;2024-03-17T16:52:22;5.87;;;1.97;;
5833;SDS011;2943;48.012;10.968;2024-03-17T16:54:50;5.27;;;1.80;;
5833;SDS011;2943;48.012;10.968;2024-03-17T16:57:17;10.53;;;1.77;;
5833;SDS011;2943;48.012;10.968;2024-03-17T16:59:44;3.70;;;1.87;;
5833;SDS011;2943;48.012;10.968;2024-03-17T17:02:14;3.17;;;2.00;;
5833;SDS011;2943;48.012;10.968;2024-03-17T17:04:42;3.83;;;1.60;;